sensor_id;sensor_type;location;lat;lon;timestamp;P1;durP1;ratioP1;P2;durP2;ratioP2
5674;SDS011;2860;54.284;10.158;2023-02-28T00:00:42;11.77;;;8.95;;
5674;SDS011;2860;54.284;10.158;2023-02-28T00:03:08;8.90;;;8.10;;
5674;SDS011;2860;54.284;10.158;2023-02-28T00:05:34;9.50;;;8.38;;
5674;SDS011;2860;54.284;10.158;2023-02-28T00:07:59;10.20;;;8.70;;
5674;SDS011;2860;54.284;10.158;2023-02-28T00:10:26;10.43;;;9.50;;
5674;SDS011;2860;54.284;10.158;2023-02-28T00:12:53;9.43;;;8.60;;
5674;SDS011;2860;54.284;10.158;2023-02-28T00:15:21;17.15;;;9.23;;
5674;SDS011;2860;54.284;10.158;2023-02-28T00:17:48;10.80;;;9.68;;
5674;SDS011;2860;54.284;10.158;2023-02-28T00:20:13;10.25;;;9.10;;
5674;SDS011;2860;54.284;10.158;2023-02-28T00:22:40;11.27;;;9.40;;
5674;SDS011;2860;54.284;10.158;2023-02-28T00:25:08;11.05;;;9.52;;
5674;SDS011;2860;54.284;10.158;2023-02-28T00:27:35;14.85;;;11.60;;
5674;SDS011;2860;54.284;10.158;2023-02-28T00:30:02;12.30;;;10.10;;
5674;SDS011;2860;54.284;10.158;2023-02-28T00:32:28;13.88;;;10.23;;
5674;SDS011;2860;54.284;10.158;2023-02-28T00:34:54;11.60;;;9.43;;
5674;SDS011;2860;54.284;10.158;2023-02-28T00:37:20;13.25;;;10.82;;
5674;SDS011;2860;54.284;10.158;2023-02-28T00:39:46;13.25;;;10.88;;
5674;SDS011;2860;54.284;10.158;2023-02-28T00:42:11;15.45;;;11.75;;
5674;SDS011;2860;54.284;10.158;2023-02-28T00:44:37;12.80;;;10.93;;
5674;SDS011;2860;54.284;10.158;2023-02-28T00:47:02;19.92;;;11.15;;
5674;SDS011;2860;54.284;10.158;2023-02-28T00:49:28;12.27;;;11.05;;
5674;SDS011;2860;54.284;10.158;2023-02-28T00:51:54;10.65;;;9.65;;
5674;SDS011;2860;54.284;10.158;2023-02-28T00:54:20;11.32;;;10.07;;
5674;SDS011;2860;54.284;10.158;2023-02-28T00:56:47;12.50;;;10.88;;
5674;SDS011;2860;54.284;10.158;2023-02-28T00:59:13;10.85;;;9.95;;
5674;SDS011;2860;54.284;10.158;2023-02-28T01:01:40;16.05;;;10.75;;
5674;SDS011;2860;54.284;10.158;2023-02-28T01:04:07;10.52;;;9.63;;
5674;SDS011;2860;54.284;10.158;2023-02-28T01:06:32;9.52;;;8.52;;
5674;SDS011;2860;54.284;10.158;2023-02-28T01:08:58;10.02;;;8.98;;
5674;SDS011;2860;54.284;10.158;2023-02-28T01:11:24;10.50;;;9.63;;
5674;SDS011;2860;54.284;10.158;2023-02-28T01:13:50;12.95;;;9.57;;
5674;SDS011;2860;54.284;10.158;2023-02-28T01:16:16;9.45;;;8.63;;
5674;SDS011;2860;54.284;10.158;2023-02-28T01:18:42;12.05;;;8.90;;
5674;SDS011;2860;54.284;10.158;2023-02-28T01:21:08;10.45;;;8.68;;
5674;SDS011;2860;54.284;10.158;2023-02-28T01:23:37;9.38;;;8.57;;
5674;SDS011;2860;54.284;10.158;2023-02-28T01:26:05;12.52;;;8.95;;
5674;SDS011;2860;54.284;10.158;2023-02-28T01:28:35;8.52;;;7.82;;
5674;SDS011;2860;54.284;10.158;2023-02-28T01:31:01;7.93;;;7.13;;
5674;SDS011;2860;54.284;10.158;2023-02-28T01:33:26;7.57;;;6.80;;
5674;SDS011;2860;54.284;10.158;2023-02-28T01:36:06;7.35;;;6.65;;
5674;SDS011;2860;54.284;10.158;2023-02-28T01:38:34;9.85;;;6.28;;
5674;SDS011;2860;54.284;10.158;2023-02-28T01:41:00;7.18;;;6.65;;
5674;SDS011;2860;54.284;10.158;2023-02-28T01:43:27;7.20;;;6.60;;
5674;SDS011;2860;54.284;10.158;2023-02-28T01:45:55;7.35;;;6.60;;
5674;SDS011;2860;54.284;10.158;2023-02-28T01:48:26;8.00;;;7.30;;
5674;SDS011;2860;54.284;10.158;2023-02-28T01:50:56;9.77;;;7.82;;
5674;SDS011;2860;54.284;10.158;2023-02-28T01:53:29;9.10;;;7.65;;
5674;SDS011;2860;54.284;10.158;2023-02-28T01:55:59;9.90;;;8.15;;
5674;SDS011;2860;54.284;10.158;2023-02-28T01:58:25;9.43;;;8.52;;
5674;SDS011;2860;54.284;10.158;2023-02-28T02:00:51;12.30;;;9.75;;
5674;SDS011;2860;54.284;10.158;2023-02-28T02:03:17;12.68;;;10.10;;
5674;SDS011;2860;54.284;10.158;2023-02-28T02:05:45;12.63;;;8.50;;
5674;SDS011;2860;54.284;10.158;2023-02-28T02:08:17;10.82;;;9.82;;
5674;SDS011;2860;54.284;10.158;2023-02-28T02:10:48;11.05;;;10.00;;
5674;SDS011;2860;54.284;10.158;2023-02-28T02:19:05;17.95;;;9.95;;
5674;SDS011;2860;54.284;10.158;2023-02-28T02:21:49;10.73;;;9.73;;
5674;SDS011;2860;54.284;10.158;2023-02-28T02:35:34;9.43;;;8.50;;
5674;SDS011;2860;54.284;10.158;2023-02-28T02:38:13;10.90;;;9.27;;
5674;SDS011;2860;54.284;10.158;2023-02-28T02:41:09;9.65;;;8.85;;
5674;SDS011;2860;54.284;10.158;2023-02-28T02:44:11;13.48;;;9.73;;
5674;SDS011;2860;54.284;10.158;2023-02-28T02:46:39;16.38;;;9.30;;
5674;SDS011;2860;54.284;10.158;2023-02-28T02:49:09;11.13;;;8.43;;
5674;SDS011;2860;54.284;10.158;2023-02-28T02:51:41;9.73;;;8.80;;
5674;SDS011;2860;54.284;10.158;2023-02-28T02:54:13;9.90;;;8.93;;
5674;SDS011;2860;54.284;10.158;2023-02-28T02:56:52;10.48;;;9.35;;
5674;SDS011;2860;54.284;10.158;2023-02-28T02:59:19;10.63;;;8.55;;
5674;SDS011;2860;54.284;10.158;2023-02-28T03:01:49;8.05;;;7.25;;
5674;SDS011;2860;54.284;10.158;2023-02-28T03:04:19;10.30;;;9.20;;
5674;SDS011;2860;54.284;10.158;2023-02-28T03:06:47;13.07;;;9.15;;
5674;SDS011;2860;54.284;10.158;2023-02-28T03:09:15;10.38;;;8.20;;
5674;SDS011;2860;54.284;10.158;2023-02-28T03:11:40;18.85;;;9.50;;
5674;SDS011;2860;54.284;10.158;2023-02-28T03:14:27;9.25;;;8.45;;
5674;SDS011;2860;54.284;10.158;2023-02-28T03:25:20;11.48;;;8.20;;
5674;SDS011;2860;54.284;10.158;2023-02-28T03:30:56;9.75;;;8.68;;
5674;SDS011;2860;54.284;10.158;2023-02-28T03:33:27;9.95;;;8.82;;
5674;SDS011;2860;54.284;10.158;2023-02-28T03:35:58;9.48;;;7.85;;
5674;SDS011;2860;54.284;10.158;2023-02-28T03:41:10;14.20;;;8.20;;
5674;SDS011;2860;54.284;10.158;2023-02-28T03:43:41;12.52;;;8.77;;
5674;SDS011;2860;54.284;10.158;2023-02-28T03:46:12;8.15;;;7.55;;
5674;SDS011;2860;54.284;10.158;2023-02-28T03:48:44;10.98;;;9.05;;
5674;SDS011;2860;54.284;10.158;2023-02-28T03:51:16;9.80;;;8.60;;
5674;SDS011;2860;54.284;10.158;2023-02-28T03:53:47;10.70;;;8.80;;
5674;SDS011;2860;54.284;10.158;2023-02-28T03:56:21;8.63;;;7.93;;
5674;SDS011;2860;54.284;10.158;2023-02-28T03:59:02;10.63;;;9.70;;
5674;SDS011;2860;54.284;10.158;2023-02-28T04:01:35;12.07;;;8.88;;
5674;SDS011;2860;54.284;10.158;2023-02-28T04:04:06;13.77;;;9.45;;
5674;SDS011;2860;54.284;10.158;2023-02-28T04:06:33;11.45;;;9.32;;
5674;SDS011;2860;54.284;10.158;2023-02-28T04:08:58;15.32;;;9.45;;
5674;SDS011;2860;54.284;10.158;2023-02-28T04:11:35;10.38;;;9.15;;
5674;SDS011;2860;54.284;10.158;2023-02-28T04:14:03;14.05;;;9.75;;
5674;SDS011;2860;54.284;10.158;2023-02-28T04:16:30;13.05;;;10.43;;
5674;SDS011;2860;54.284;10.158;2023-02-28T04:18:56;10.25;;;9.27;;
5674;SDS011;2860;54.284;10.158;2023-02-28T04:21:28;9.73;;;8.80;;
5674;SDS011;2860;54.284;10.158;2023-02-28T04:23:55;10.95;;;9.52;;
5674;SDS011;2860;54.284;10.158;2023-02-28T04:26:25;11.38;;;9.82;;
5674;SDS011;2860;54.284;10.158;2023-02-28T04:28:57;10.88;;;9.85;;
5674;SDS011;2860;54.284;10.158;2023-02-28T04:31:23;10.95;;;9.60;;
5674;SDS011;2860;54.284;10.158;2023-02-28T04:33:49;10.02;;;9.13;;
5674;SDS011;2860;54.284;10.158;2023-02-28T04:36:14;11.13;;;9.65;;
5674;SDS011;2860;54.284;10.158;2023-02-28T04:38:42;13.65;;;10.30;;
5674;SDS011;2860;54.284;10.158;2023-02-28T04:41:08;10.07;;;9.05;;
5674;SDS011;2860;54.284;10.158;2023-02-28T04:43:34;10.20;;;9.27;;
5674;SDS011;2860;54.284;10.158;2023-02-28T04:46:01;11.05;;;9.00;;
5674;SDS011;2860;54.284;10.158;2023-02-28T04:48:27;12.48;;;10.73;;
5674;SDS011;2860;54.284;10.158;2023-02-28T04:50:54;14.75;;;10.57;;
5674;SDS011;2860;54.284;10.158;2023-02-28T04:53:20;16.55;;;9.80;;
5674;SDS011;2860;54.284;10.158;2023-02-28T04:55:46;19.10;;;10.38;;
5674;SDS011;2860;54.284;10.158;2023-02-28T04:58:12;11.60;;;9.93;;
5674;SDS011;2860;54.284;10.158;2023-02-28T05:00:38;12.52;;;11.10;;
5674;SDS011;2860;54.284;10.158;2023-02-28T05:03:04;16.13;;;10.25;;
5674;SDS011;2860;54.284;10.158;2023-02-28T05:05:29;12.63;;;10.02;;
5674;SDS011;2860;54.284;10.158;2023-02-28T05:07:55;10.80;;;9.90;;
5674;SDS011;2860;54.284;10.158;2023-02-28T05:10:21;13.10;;;11.13;;
5674;SDS011;2860;54.284;10.158;2023-02-28T05:12:47;11.13;;;9.65;;
5674;SDS011;2860;54.284;10.158;2023-02-28T05:15:14;13.82;;;10.60;;
5674;SDS011;2860;54.284;10.158;2023-02-28T05:17:40;11.38;;;10.25;;
5674;SDS011;2860;54.284;10.158;2023-02-28T05:20:06;18.20;;;11.63;;
5674;SDS011;2860;54.284;10.158;2023-02-28T05:22:35;11.68;;;10.27;;
5674;SDS011;2860;54.284;10.158;2023-02-28T05:25:02;13.43;;;10.73;;
5674;SDS011;2860;54.284;10.158;2023-02-28T05:27:28;14.90;;;10.63;;
5674;SDS011;2860;54.284;10.158;2023-02-28T05:29:53;14.65;;;10.90;;
5674;SDS011;2860;54.284;10.158;2023-02-28T05:32:19;12.40;;;11.10;;
5674;SDS011;2860;54.284;10.158;2023-02-28T05:34:45;12.15;;;9.95;;
5674;SDS011;2860;54.284;10.158;2023-02-28T05:37:11;17.23;;;12.20;;
5674;SDS011;2860;54.284;10.158;2023-02-28T05:39:37;12.38;;;10.73;;
5674;SDS011;2860;54.284;10.158;2023-02-28T05:42:03;19.27;;;12.20;;
5674;SDS011;2860;54.284;10.158;2023-02-28T05:44:29;12.55;;;10.30;;
5674;SDS011;2860;54.284;10.158;2023-02-28T05:46:55;14.48;;;10.63;;
5674;SDS011;2860;54.284;10.158;2023-02-28T05:49:20;12.68;;;11.32;;
5674;SDS011;2860;54.284;10.158;2023-02-28T05:51:46;14.93;;;11.85;;
5674;SDS011;2860;54.284;10.158;2023-02-28T05:54:12;17.13;;;13.15;;
5674;SDS011;2860;54.284;10.158;2023-02-28T05:56:37;14.35;;;11.80;;
5674;SDS011;2860;54.284;10.158;2023-02-28T05:59:05;15.05;;;11.93;;
5674;SDS011;2860;54.284;10.158;2023-02-28T06:01:35;14.38;;;11.02;;
5674;SDS011;2860;54.284;10.158;2023-02-28T06:04:04;16.95;;;11.70;;
5674;SDS011;2860;54.284;10.158;2023-02-28T06:06:31;14.35;;;12.85;;
5674;SDS011;2860;54.284;10.158;2023-02-28T06:08:59;14.15;;;11.38;;
5674;SDS011;2860;54.284;10.158;2023-02-28T06:11:25;16.23;;;11.85;;
5674;SDS011;2860;54.284;10.158;2023-02-28T06:13:55;14.68;;;13.13;;
5674;SDS011;2860;54.284;10.158;2023-02-28T06:16:22;18.05;;;12.57;;
5674;SDS011;2860;54.284;10.158;2023-02-28T06:18:49;13.52;;;11.50;;
5674;SDS011;2860;54.284;10.158;2023-02-28T06:21:14;15.48;;;11.68;;
5674;SDS011;2860;54.284;10.158;2023-02-28T06:23:40;17.30;;;13.25;;
5674;SDS011;2860;54.284;10.158;2023-02-28T06:26:05;14.38;;;11.52;;
5674;SDS011;2860;54.284;10.158;2023-02-28T06:28:31;18.38;;;12.38;;
5674;SDS011;2860;54.284;10.158;2023-02-28T06:30:56;17.13;;;12.48;;
5674;SDS011;2860;54.284;10.158;2023-02-28T06:33:22;13.82;;;12.38;;
5674;SDS011;2860;54.284;10.158;2023-02-28T06:35:50;15.20;;;12.00;;
5674;SDS011;2860;54.284;10.158;2023-02-28T06:38:16;20.83;;;12.63;;
5674;SDS011;2860;54.284;10.158;2023-02-28T06:40:43;16.35;;;13.05;;
5674;SDS011;2860;54.284;10.158;2023-02-28T06:43:09;19.75;;;13.38;;
5674;SDS011;2860;54.284;10.158;2023-02-28T06:45:40;14.52;;;12.48;;
5674;SDS011;2860;54.284;10.158;2023-02-28T06:48:07;16.38;;;12.35;;
5674;SDS011;2860;54.284;10.158;2023-02-28T06:50:32;13.77;;;11.20;;
5674;SDS011;2860;54.284;10.158;2023-02-28T06:52:58;18.35;;;12.05;;
5674;SDS011;2860;54.284;10.158;2023-02-28T06:55:23;20.92;;;14.18;;
5674;SDS011;2860;54.284;10.158;2023-02-28T06:57:49;14.85;;;12.13;;
5674;SDS011;2860;54.284;10.158;2023-02-28T07:00:15;16.27;;;12.55;;
5674;SDS011;2860;54.284;10.158;2023-02-28T07:02:41;20.27;;;16.73;;
5674;SDS011;2860;54.284;10.158;2023-02-28T07:05:06;18.42;;;14.05;;
5674;SDS011;2860;54.284;10.158;2023-02-28T07:07:32;19.10;;;13.65;;
5674;SDS011;2860;54.284;10.158;2023-02-28T07:09:59;14.20;;;12.27;;
5674;SDS011;2860;54.284;10.158;2023-02-28T07:12:24;17.05;;;13.50;;
5674;SDS011;2860;54.284;10.158;2023-02-28T07:14:50;18.98;;;13.73;;
5674;SDS011;2860;54.284;10.158;2023-02-28T07:17:15;20.05;;;13.95;;
5674;SDS011;2860;54.284;10.158;2023-02-28T07:19:41;18.80;;;13.90;;
5674;SDS011;2860;54.284;10.158;2023-02-28T07:22:06;16.67;;;12.65;;
5674;SDS011;2860;54.284;10.158;2023-02-28T07:24:32;14.43;;;12.93;;
5674;SDS011;2860;54.284;10.158;2023-02-28T07:26:58;17.70;;;12.63;;
5674;SDS011;2860;54.284;10.158;2023-02-28T07:29:24;22.35;;;13.88;;
5674;SDS011;2860;54.284;10.158;2023-02-28T07:31:50;15.90;;;13.10;;
5674;SDS011;2860;54.284;10.158;2023-02-28T07:34:17;22.05;;;15.20;;
5674;SDS011;2860;54.284;10.158;2023-02-28T07:36:44;22.00;;;14.65;;
5674;SDS011;2860;54.284;10.158;2023-02-28T07:39:09;19.70;;;13.20;;
5674;SDS011;2860;54.284;10.158;2023-02-28T07:41:35;19.73;;;13.38;;
5674;SDS011;2860;54.284;10.158;2023-02-28T07:44:04;17.45;;;11.60;;
5674;SDS011;2860;54.284;10.158;2023-02-28T07:46:30;19.83;;;13.18;;
5674;SDS011;2860;54.284;10.158;2023-02-28T07:49:00;20.02;;;13.57;;
5674;SDS011;2860;54.284;10.158;2023-02-28T07:51:27;20.50;;;14.70;;
5674;SDS011;2860;54.284;10.158;2023-02-28T07:53:53;18.70;;;15.32;;
5674;SDS011;2860;54.284;10.158;2023-02-28T07:56:19;21.77;;;14.85;;
5674;SDS011;2860;54.284;10.158;2023-02-28T07:58:44;17.27;;;15.27;;
5674;SDS011;2860;54.284;10.158;2023-02-28T08:01:10;25.25;;;16.40;;
5674;SDS011;2860;54.284;10.158;2023-02-28T08:03:36;21.23;;;15.68;;
5674;SDS011;2860;54.284;10.158;2023-02-28T08:06:03;21.00;;;15.25;;
5674;SDS011;2860;54.284;10.158;2023-02-28T08:08:30;19.27;;;14.13;;
5674;SDS011;2860;54.284;10.158;2023-02-28T08:10:57;18.13;;;14.40;;
5674;SDS011;2860;54.284;10.158;2023-02-28T08:13:25;14.30;;;12.73;;
5674;SDS011;2860;54.284;10.158;2023-02-28T08:15:52;16.20;;;11.98;;
5674;SDS011;2860;54.284;10.158;2023-02-28T08:18:18;13.65;;;12.35;;
5674;SDS011;2860;54.284;10.158;2023-02-28T08:20:44;14.88;;;11.07;;
5674;SDS011;2860;54.284;10.158;2023-02-28T08:23:09;11.35;;;9.45;;
5674;SDS011;2860;54.284;10.158;2023-02-28T08:25:34;10.57;;;9.60;;
5674;SDS011;2860;54.284;10.158;2023-02-28T08:28:00;13.38;;;9.02;;
5674;SDS011;2860;54.284;10.158;2023-02-28T08:30:26;9.70;;;8.82;;
5674;SDS011;2860;54.284;10.158;2023-02-28T08:32:51;9.50;;;7.65;;
5674;SDS011;2860;54.284;10.158;2023-02-28T08:35:16;9.90;;;8.77;;
5674;SDS011;2860;54.284;10.158;2023-02-28T08:37:42;9.13;;;7.75;;
5674;SDS011;2860;54.284;10.158;2023-02-28T08:40:08;9.45;;;8.65;;
5674;SDS011;2860;54.284;10.158;2023-02-28T08:42:34;10.57;;;8.25;;
5674;SDS011;2860;54.284;10.158;2023-02-28T08:44:59;10.50;;;6.78;;
5674;SDS011;2860;54.284;10.158;2023-02-28T08:47:25;8.95;;;6.90;;
5674;SDS011;2860;54.284;10.158;2023-02-28T08:49:50;9.13;;;7.20;;
5674;SDS011;2860;54.284;10.158;2023-02-28T08:52:16;9.80;;;7.75;;
5674;SDS011;2860;54.284;10.158;2023-02-28T08:54:41;13.25;;;7.85;;
5674;SDS011;2860;54.284;10.158;2023-02-28T08:57:07;8.48;;;7.57;;
5674;SDS011;2860;54.284;10.158;2023-02-28T08:59:32;7.53;;;6.85;;
5674;SDS011;2860;54.284;10.158;2023-02-28T09:01:58;9.57;;;6.28;;
5674;SDS011;2860;54.284;10.158;2023-02-28T09:04:23;6.30;;;5.80;;
5674;SDS011;2860;54.284;10.158;2023-02-28T09:06:49;9.25;;;5.80;;
5674;SDS011;2860;54.284;10.158;2023-02-28T09:09:15;7.10;;;5.65;;
5674;SDS011;2860;54.284;10.158;2023-02-28T09:11:41;8.10;;;7.10;;
5674;SDS011;2860;54.284;10.158;2023-02-28T09:14:07;9.75;;;6.22;;
5674;SDS011;2860;54.284;10.158;2023-02-28T09:16:33;9.52;;;6.03;;
5674;SDS011;2860;54.284;10.158;2023-02-28T09:18:59;6.00;;;5.60;;
5674;SDS011;2860;54.284;10.158;2023-02-28T09:21:25;6.05;;;5.47;;
5674;SDS011;2860;54.284;10.158;2023-02-28T09:23:51;6.82;;;5.40;;
5674;SDS011;2860;54.284;10.158;2023-02-28T09:26:21;8.65;;;5.40;;
5674;SDS011;2860;54.284;10.158;2023-02-28T09:28:49;8.73;;;4.78;;
5674;SDS011;2860;54.284;10.158;2023-02-28T09:31:19;6.63;;;5.22;;
5674;SDS011;2860;54.284;10.158;2023-02-28T09:33:47;6.13;;;5.45;;
5674;SDS011;2860;54.284;10.158;2023-02-28T09:36:13;7.70;;;5.57;;
5674;SDS011;2860;54.284;10.158;2023-02-28T09:38:39;11.73;;;6.05;;
5674;SDS011;2860;54.284;10.158;2023-02-28T09:41:10;5.72;;;5.35;;
5674;SDS011;2860;54.284;10.158;2023-02-28T09:43:40;5.88;;;5.35;;
5674;SDS011;2860;54.284;10.158;2023-02-28T09:48:51;5.75;;;5.43;;
5674;SDS011;2860;54.284;10.158;2023-02-28T09:54:02;5.20;;;4.70;;
5674;SDS011;2860;54.284;10.158;2023-02-28T09:56:31;5.93;;;5.32;;
5674;SDS011;2860;54.284;10.158;2023-02-28T10:01:44;3.60;;;3.35;;
5674;SDS011;2860;54.284;10.158;2023-02-28T10:07:00;2.42;;;2.22;;
5674;SDS011;2860;54.284;10.158;2023-02-28T10:09:31;2.53;;;2.53;;
5674;SDS011;2860;54.284;10.158;2023-02-28T10:12:02;2.97;;;2.78;;
5674;SDS011;2860;54.284;10.158;2023-02-28T10:14:30;3.00;;;2.78;;
5674;SDS011;2860;54.284;10.158;2023-02-28T10:16:59;4.68;;;2.70;;
5674;SDS011;2860;54.284;10.158;2023-02-28T10:19:40;2.92;;;1.88;;
5674;SDS011;2860;54.284;10.158;2023-02-28T10:22:40;2.58;;;2.40;;
5674;SDS011;2860;54.284;10.158;2023-02-28T10:25:18;2.00;;;2.00;;
5674;SDS011;2860;54.284;10.158;2023-02-28T10:27:56;3.00;;;2.78;;
5674;SDS011;2860;54.284;10.158;2023-02-28T10:30:32;2.22;;;2.22;;
5674;SDS011;2860;54.284;10.158;2023-02-28T10:32:57;4.10;;;2.53;;
5674;SDS011;2860;54.284;10.158;2023-02-28T10:35:24;2.33;;;2.22;;
5674;SDS011;2860;54.284;10.158;2023-02-28T10:37:54;3.20;;;2.47;;
5674;SDS011;2860;54.284;10.158;2023-02-28T10:42:56;2.63;;;2.42;;
5674;SDS011;2860;54.284;10.158;2023-02-28T10:45:29;2.60;;;2.60;;
5674;SDS011;2860;54.284;10.158;2023-02-28T11:03:58;2.58;;;2.40;;
5674;SDS011;2860;54.284;10.158;2023-02-28T11:09:06;2.60;;;2.50;;
5674;SDS011;2860;54.284;10.158;2023-02-28T11:11:54;3.05;;;2.22;;
5674;SDS011;2860;54.284;10.158;2023-02-28T11:14:27;2.60;;;2.50;;
5674;SDS011;2860;54.284;10.158;2023-02-28T11:16:54;2.25;;;2.15;;
5674;SDS011;2860;54.284;10.158;2023-02-28T11:19:38;2.15;;;2.15;;
5674;SDS011;2860;54.284;10.158;2023-02-28T11:22:06;6.95;;;2.38;;
5674;SDS011;2860;54.284;10.158;2023-02-28T11:27:02;2.53;;;2.45;;
5674;SDS011;2860;54.284;10.158;2023-02-28T11:29:29;5.45;;;2.10;;
5674;SDS011;2860;54.284;10.158;2023-02-28T11:32:04;2.75;;;2.60;;
5674;SDS011;2860;54.284;10.158;2023-02-28T11:34:36;2.60;;;2.40;;
5674;SDS011;2860;54.284;10.158;2023-02-28T11:37:02;2.42;;;2.38;;
5674;SDS011;2860;54.284;10.158;2023-02-28T11:39:32;4.75;;;2.50;;
5674;SDS011;2860;54.284;10.158;2023-02-28T11:53:17;2.25;;;2.05;;
5674;SDS011;2860;54.284;10.158;2023-02-28T11:56:10;1.98;;;1.85;;
5674;SDS011;2860;54.284;10.158;2023-02-28T11:58:47;1.73;;;1.27;;
5674;SDS011;2860;54.284;10.158;2023-02-28T12:01:32;2.15;;;2.05;;
5674;SDS011;2860;54.284;10.158;2023-02-28T12:04:17;2.78;;;1.95;;
5674;SDS011;2860;54.284;10.158;2023-02-28T12:15:28;2.35;;;1.80;;
5674;SDS011;2860;54.284;10.158;2023-02-28T12:21:08;1.45;;;1.45;;
5674;SDS011;2860;54.284;10.158;2023-02-28T12:23:57;1.98;;;1.90;;
5674;SDS011;2860;54.284;10.158;2023-02-28T12:29:25;1.73;;;1.73;;
5674;SDS011;2860;54.284;10.158;2023-02-28T12:32:13;2.70;;;2.50;;
5674;SDS011;2860;54.284;10.158;2023-02-28T12:34:49;3.83;;;1.92;;
5674;SDS011;2860;54.284;10.158;2023-02-28T12:37:34;2.08;;;1.98;;
5674;SDS011;2860;54.284;10.158;2023-02-28T12:40:22;1.60;;;1.60;;
5674;SDS011;2860;54.284;10.158;2023-02-28T12:42:55;2.38;;;1.95;;
5674;SDS011;2860;54.284;10.158;2023-02-28T12:47:55;1.80;;;1.80;;
5674;SDS011;2860;54.284;10.158;2023-02-28T12:50:23;2.58;;;2.42;;
5674;SDS011;2860;54.284;10.158;2023-02-28T12:52:54;1.95;;;1.95;;
5674;SDS011;2860;54.284;10.158;2023-02-28T12:55:40;2.00;;;1.90;;
5674;SDS011;2860;54.284;10.158;2023-02-28T12:58:20;4.20;;;2.20;;
5674;SDS011;2860;54.284;10.158;2023-02-28T13:01:20;2.03;;;2.00;;
5674;SDS011;2860;54.284;10.158;2023-02-28T13:06:59;2.05;;;1.95;;
5674;SDS011;2860;54.284;10.158;2023-02-28T13:09:35;1.80;;;1.80;;
5674;SDS011;2860;54.284;10.158;2023-02-28T13:12:02;1.83;;;1.83;;
5674;SDS011;2860;54.284;10.158;2023-02-28T13:14:38;2.15;;;2.05;;
5674;SDS011;2860;54.284;10.158;2023-02-28T13:19:39;1.67;;;1.67;;
5674;SDS011;2860;54.284;10.158;2023-02-28T13:22:20;3.60;;;2.03;;
5674;SDS011;2860;54.284;10.158;2023-02-28T13:27:46;2.15;;;2.05;;
5674;SDS011;2860;54.284;10.158;2023-02-28T13:33:23;1.75;;;1.65;;
5674;SDS011;2860;54.284;10.158;2023-02-28T13:38:35;4.93;;;2.00;;
5674;SDS011;2860;54.284;10.158;2023-02-28T13:46:33;6.38;;;2.00;;
5674;SDS011;2860;54.284;10.158;2023-02-28T13:49:25;2.15;;;2.05;;
5674;SDS011;2860;54.284;10.158;2023-02-28T13:57:03;2.08;;;1.92;;
5674;SDS011;2860;54.284;10.158;2023-02-28T14:07:26;2.17;;;2.17;;
5674;SDS011;2860;54.284;10.158;2023-02-28T14:10:05;1.85;;;1.85;;
5674;SDS011;2860;54.284;10.158;2023-02-28T14:17:52;2.10;;;2.00;;
5674;SDS011;2860;54.284;10.158;2023-02-28T14:20:18;1.98;;;1.98;;
5674;SDS011;2860;54.284;10.158;2023-02-28T14:22:58;2.55;;;2.47;;
5674;SDS011;2860;54.284;10.158;2023-02-28T14:28:39;1.83;;;1.73;;
5674;SDS011;2860;54.284;10.158;2023-02-28T14:31:09;3.83;;;3.22;;
5674;SDS011;2860;54.284;10.158;2023-02-28T14:36:50;2.40;;;2.30;;
5674;SDS011;2860;54.284;10.158;2023-02-28T14:39:20;2.38;;;2.38;;
5674;SDS011;2860;54.284;10.158;2023-02-28T14:41:48;2.95;;;2.38;;
5674;SDS011;2860;54.284;10.158;2023-02-28T14:44:21;3.00;;;2.80;;
5674;SDS011;2860;54.284;10.158;2023-02-28T14:46:49;2.38;;;2.22;;
5674;SDS011;2860;54.284;10.158;2023-02-28T14:49:26;2.08;;;2.05;;
5674;SDS011;2860;54.284;10.158;2023-02-28T14:54:28;2.90;;;2.50;;
5674;SDS011;2860;54.284;10.158;2023-02-28T14:56:54;3.65;;;2.72;;
5674;SDS011;2860;54.284;10.158;2023-02-28T14:59:27;2.20;;;2.20;;
5674;SDS011;2860;54.284;10.158;2023-02-28T15:04:55;2.78;;;2.58;;
5674;SDS011;2860;54.284;10.158;2023-02-28T15:07:22;2.47;;;2.38;;
5674;SDS011;2860;54.284;10.158;2023-02-28T15:12:49;3.38;;;3.17;;
5674;SDS011;2860;54.284;10.158;2023-02-28T15:15:18;3.10;;;2.78;;
5674;SDS011;2860;54.284;10.158;2023-02-28T15:17:46;2.08;;;2.08;;
5674;SDS011;2860;54.284;10.158;2023-02-28T15:20:15;2.17;;;2.13;;
5674;SDS011;2860;54.284;10.158;2023-02-28T15:22:43;2.47;;;2.38;;
5674;SDS011;2860;54.284;10.158;2023-02-28T15:25:11;2.60;;;2.10;;
5674;SDS011;2860;54.284;10.158;2023-02-28T15:27:42;2.00;;;1.70;;
5674;SDS011;2860;54.284;10.158;2023-02-28T15:30:16;1.73;;;1.73;;
5674;SDS011;2860;54.284;10.158;2023-02-28T15:35:45;1.70;;;1.60;;
5674;SDS011;2860;54.284;10.158;2023-02-28T15:38:25;2.58;;;2.38;;
5674;SDS011;2860;54.284;10.158;2023-02-28T15:40:52;2.20;;;2.17;;
5674;SDS011;2860;54.284;10.158;2023-02-28T15:43:29;2.08;;;2.08;;
5674;SDS011;2860;54.284;10.158;2023-02-28T15:46:02;2.25;;;2.15;;
5674;SDS011;2860;54.284;10.158;2023-02-28T15:48:35;2.38;;;2.28;;
5674;SDS011;2860;54.284;10.158;2023-02-28T15:51:17;1.85;;;1.85;;
5674;SDS011;2860;54.284;10.158;2023-02-28T15:53:56;3.05;;;2.95;;
5674;SDS011;2860;54.284;10.158;2023-02-28T15:56:26;2.90;;;2.60;;
5674;SDS011;2860;54.284;10.158;2023-02-28T15:58:56;2.45;;;2.42;;
5674;SDS011;2860;54.284;10.158;2023-02-28T16:01:35;2.55;;;2.55;;
5674;SDS011;2860;54.284;10.158;2023-02-28T16:04:06;2.72;;;2.53;;
5674;SDS011;2860;54.284;10.158;2023-02-28T16:06:42;2.83;;;2.58;;
5674;SDS011;2860;54.284;10.158;2023-02-28T16:09:14;2.60;;;2.45;;
5674;SDS011;2860;54.284;10.158;2023-02-28T16:11:45;2.28;;;2.17;;
5674;SDS011;2860;54.284;10.158;2023-02-28T16:14:13;3.22;;;2.90;;
5674;SDS011;2860;54.284;10.158;2023-02-28T16:16:52;5.45;;;3.13;;
5674;SDS011;2860;54.284;10.158;2023-02-28T16:19:20;3.67;;;2.47;;
5674;SDS011;2860;54.284;10.158;2023-02-28T16:21:46;2.75;;;2.63;;
5674;SDS011;2860;54.284;10.158;2023-02-28T16:24:12;2.70;;;2.55;;
5674;SDS011;2860;54.284;10.158;2023-02-28T16:26:39;2.70;;;2.60;;
5674;SDS011;2860;54.284;10.158;2023-02-28T16:29:06;2.10;;;2.10;;
5674;SDS011;2860;54.284;10.158;2023-02-28T16:31:33;1.90;;;1.90;;
5674;SDS011;2860;54.284;10.158;2023-02-28T16:34:01;3.35;;;2.47;;
5674;SDS011;2860;54.284;10.158;2023-02-28T16:36:28;2.45;;;2.42;;
5674;SDS011;2860;54.284;10.158;2023-02-28T16:38:55;2.55;;;2.35;;
5674;SDS011;2860;54.284;10.158;2023-02-28T16:41:21;2.15;;;2.05;;
5674;SDS011;2860;54.284;10.158;2023-02-28T16:43:50;2.47;;;2.42;;
5674;SDS011;2860;54.284;10.158;2023-02-28T16:46:18;3.22;;;2.05;;
5674;SDS011;2860;54.284;10.158;2023-02-28T16:48:45;2.85;;;2.63;;
5674;SDS011;2860;54.284;10.158;2023-02-28T16:51:15;3.20;;;3.10;;
5674;SDS011;2860;54.284;10.158;2023-02-28T16:53:41;3.35;;;3.25;;
5674;SDS011;2860;54.284;10.158;2023-02-28T16:56:12;5.13;;;3.83;;
5674;SDS011;2860;54.284;10.158;2023-02-28T16:58:44;2.75;;;2.75;;
5674;SDS011;2860;54.284;10.158;2023-02-28T17:01:10;3.83;;;3.63;;
5674;SDS011;2860;54.284;10.158;2023-02-28T17:03:35;4.10;;;3.78;;
5674;SDS011;2860;54.284;10.158;2023-02-28T17:06:01;5.95;;;4.57;;
5674;SDS011;2860;54.284;10.158;2023-02-28T17:08:28;4.40;;;4.10;;
5674;SDS011;2860;54.284;10.158;2023-02-28T17:10:54;3.58;;;3.47;;
5674;SDS011;2860;54.284;10.158;2023-02-28T17:13:20;5.13;;;4.28;;
5674;SDS011;2860;54.284;10.158;2023-02-28T17:15:46;4.95;;;4.60;;
5674;SDS011;2860;54.284;10.158;2023-02-28T17:18:13;5.53;;;5.13;;
5674;SDS011;2860;54.284;10.158;2023-02-28T17:20:43;4.40;;;4.20;;
5674;SDS011;2860;54.284;10.158;2023-02-28T17:23:09;7.93;;;5.68;;
5674;SDS011;2860;54.284;10.158;2023-02-28T17:25:35;6.93;;;6.13;;
5674;SDS011;2860;54.284;10.158;2023-02-28T17:28:00;4.40;;;4.00;;
5674;SDS011;2860;54.284;10.158;2023-02-28T17:30:26;5.55;;;4.97;;
5674;SDS011;2860;54.284;10.158;2023-02-28T17:32:53;8.07;;;5.38;;